createdAt,value
2018-01-08T00:00:00.094Z,54.70
2018-01-08T00:02:29.194Z,55.28
2018-01-08T00:04:58.606Z,56.45
2018-01-08T00:07:26.986Z,60.63
2018-01-08T00:09:55.372Z,63.70
2018-01-08T00:12:23.953Z,60.80
2018-01-08T00:14:52.598Z,58.83
2018-01-08T00:17:20.981Z,56.10
2018-01-08T00:19:49.568Z,58.30
2018-01-08T00:22:17.941Z,56.30
2018-01-08T00:24:46.333Z,101.33
2018-01-08T00:27:16.122Z,64.43
2018-01-08T00:29:44.959Z,61.33
2018-01-08T00:32:13.461Z,59.60
2018-01-08T00:34:42.001Z,63.50
2018-01-08T00:37:10.393Z,59.33
2018-01-08T00:39:39.053Z,63.47
2018-01-08T00:42:07.450Z,58.13
2018-01-08T00:44:36.210Z,61.65
2018-01-08T00:47:04.610Z,54.47
2018-01-08T00:49:33.224Z,55.90
2018-01-08T00:52:01.606Z,63.00
2018-01-08T00:54:30.278Z,59.97
2018-01-08T00:56:58.962Z,77.43
2018-01-08T00:59:27.618Z,60.07
2018-01-08T01:01:55.998Z,63.10
2018-01-08T01:04:24.377Z,53.43
2018-01-08T01:06:52.742Z,61.77
2018-01-08T01:09:21.189Z,63.07
2018-01-08T01:11:49.745Z,68.77
2018-01-08T01:14:18.116Z,57.53
2018-01-08T01:16:46.773Z,58.33
2018-01-08T01:19:16.201Z,57.60
2018-01-08T01:21:44.800Z,55.40
2018-01-08T01:24:13.185Z,68.10
2018-01-08T01:26:41.837Z,65.53
2018-01-08T01:29:10.337Z,58.77
2018-01-08T01:31:38.884Z,66.23
2018-01-08T01:34:07.261Z,68.70
2018-01-08T01:36:35.638Z,60.50
2018-01-08T01:39:03.404Z,53.13
2018-01-08T01:41:31.907Z,53.13
2018-01-08T01:44:00.558Z,61.70
2018-01-08T01:46:29.872Z,55.07
2018-01-08T01:49:09.613Z,67.07
2018-01-08T01:51:38.434Z,53.03
2018-01-08T01:54:07.078Z,57.67
2018-01-08T01:56:36.492Z,54.75
2018-01-08T01:59:04.878Z,59.73
2018-01-08T02:01:33.505Z,49.53
2018-01-08T02:04:01.997Z,60.53
2018-01-08T02:06:30.387Z,59.97
2018-01-08T02:08:59.037Z,56.53
2018-01-08T02:11:27.464Z,54.87
2018-01-08T02:13:55.849Z,62.33
2018-01-08T02:16:25.141Z,49.80
2018-01-08T02:18:53.707Z,59.60
2018-01-08T02:21:22.133Z,57.60
2018-01-08T02:23:50.785Z,51.80
2018-01-08T02:26:19.256Z,51.00
2018-01-08T02:28:47.704Z,54.30
2018-01-08T02:31:16.222Z,54.03
2018-01-08T02:33:44.591Z,56.60
2018-01-08T02:36:13.164Z,64.17
2018-01-08T02:38:41.806Z,59.38
2018-01-08T02:41:09.860Z,52.93
2018-01-08T02:43:38.346Z,58.00
2018-01-08T02:46:07.002Z,55.92
2018-01-08T02:48:35.382Z,57.87
2018-01-08T02:51:03.765Z,56.70
2018-01-08T02:53:32.433Z,51.70
2018-01-08T02:56:02.742Z,52.33
2018-01-08T02:58:32.178Z,46.75
2018-01-08T03:01:00.553Z,49.30
2018-01-08T03:03:28.926Z,48.80
2018-01-08T03:05:58.233Z,47.10
2018-01-08T03:08:26.609Z,49.80
2018-01-08T03:10:55.153Z,57.90
2018-01-08T03:13:23.827Z,43.25
2018-01-08T03:15:52.973Z,53.07
2018-01-08T03:18:21.445Z,45.63
2018-01-08T03:20:49.828Z,48.03
2018-01-08T03:23:19.025Z,51.17
2018-01-08T03:25:47.677Z,47.63
2018-01-08T03:28:16.127Z,50.27
2018-01-08T03:30:44.495Z,45.83
2018-01-08T03:33:13.188Z,47.07
2018-01-08T03:35:41.930Z,56.40
2018-01-08T03:38:10.302Z,45.27
2018-01-08T03:40:38.680Z,43.47
2018-01-08T03:43:07.293Z,42.27
2018-01-08T03:45:35.670Z,43.90
2018-01-08T03:48:04.046Z,44.47
2018-01-08T03:50:32.437Z,39.87
2018-01-08T03:53:00.818Z,51.53
2018-01-08T03:55:29.462Z,46.47
2018-01-08T03:57:58.870Z,45.63
2018-01-08T04:00:27.290Z,42.83
2018-01-08T04:02:55.949Z,42.75
2018-01-08T04:05:24.329Z,40.63
2018-01-08T04:07:52.933Z,37.87
2018-01-08T04:10:21.585Z,42.67
2018-01-08T04:12:49.969Z,46.50
2018-01-08T04:15:18.355Z,39.10
2018-01-08T04:17:47.013Z,45.17
2018-01-08T04:20:15.389Z,40.60
2018-01-08T04:22:44.807Z,37.08
2018-01-08T04:25:13.504Z,41.58
2018-01-08T04:27:42.011Z,42.90
2018-01-08T04:30:10.571Z,44.17
2018-01-08T04:32:39.241Z,39.78
2018-01-08T04:35:07.632Z,39.20
2018-01-08T04:37:36.111Z,39.80
2018-01-08T04:40:04.138Z,40.33
2018-01-08T04:42:32.774Z,43.77
2018-01-08T04:45:01.426Z,47.85
2018-01-08T04:47:30.947Z,41.60
2018-01-08T04:49:59.418Z,45.03
2018-01-08T04:52:28.066Z,42.35
2018-01-08T04:54:56.558Z,39.30
2018-01-08T04:57:25.010Z,45.03
2018-01-08T04:59:54.150Z,42.27
2018-01-08T05:02:22.533Z,38.65
2018-01-08T05:04:51.102Z,42.00
2018-01-08T05:07:20.513Z,40.38
2018-01-08T05:09:48.905Z,39.60
2018-01-08T05:12:17.289Z,51.40
2018-01-08T05:14:45.965Z,35.67
2018-01-08T05:17:14.337Z,41.57
2018-01-08T05:19:42.921Z,43.80
2018-01-08T05:22:11.299Z,38.10
2018-01-08T05:24:39.864Z,41.67
2018-01-08T05:27:09.285Z,44.70
2018-01-08T05:29:37.936Z,36.53
2018-01-08T05:32:06.327Z,35.10
2018-01-08T05:34:34.776Z,44.30
2018-01-08T05:37:03.456Z,38.08
2018-01-08T05:39:32.605Z,37.70
2018-01-08T05:42:00.986Z,36.90
2018-01-08T05:44:29.640Z,41.00
2018-01-08T05:46:58.014Z,41.60
2018-01-08T05:49:26.388Z,39.93
2018-01-08T05:51:54.894Z,38.13
2018-01-08T05:54:23.276Z,42.40
2018-01-08T05:56:51.862Z,42.63
2018-01-08T05:59:20.258Z,44.83
2018-01-08T06:01:48.926Z,33.23
2018-01-08T06:04:17.577Z,40.35
2018-01-08T06:06:45.947Z,37.50
2018-01-08T06:09:14.573Z,39.77
2018-01-08T06:11:43.150Z,42.80
2018-01-08T06:14:11.841Z,36.77
2018-01-08T06:16:40.348Z,41.27
2018-01-08T06:19:09.319Z,43.00
2018-01-08T06:21:37.981Z,40.35
2018-01-08T06:24:06.349Z,34.13
2018-01-08T06:26:35.859Z,42.15
2018-01-08T06:29:05.273Z,43.63
2018-01-08T06:31:33.652Z,38.53
2018-01-08T06:34:02.311Z,44.28
2018-01-08T06:36:30.690Z,39.77
2018-01-08T06:38:59.070Z,40.33
2018-01-08T06:41:27.590Z,43.73
2018-01-08T06:43:55.970Z,38.40
2018-01-08T06:46:24.338Z,44.17
2018-01-08T06:48:52.747Z,36.47
2018-01-08T06:51:21.510Z,37.53
2018-01-08T06:53:50.167Z,46.90
2018-01-08T06:56:18.838Z,41.05
2018-01-08T06:58:47.219Z,38.47
2018-01-08T07:01:15.815Z,38.90
2018-01-08T07:03:44.462Z,39.93
2018-01-08T07:06:13.812Z,40.10
2018-01-08T07:08:42.188Z,44.33
2018-01-08T07:11:10.981Z,40.42
2018-01-08T07:13:40.173Z,40.33
2018-01-08T07:16:08.639Z,37.22
2018-01-08T07:18:37.046Z,41.30
2018-01-08T07:21:05.435Z,39.80
2018-01-08T07:23:33.844Z,42.60
2018-01-08T07:26:02.505Z,39.30
2018-01-08T07:28:31.146Z,39.35
2018-01-08T07:30:59.815Z,33.50
2018-01-08T07:33:28.204Z,34.67
2018-01-08T07:35:56.568Z,32.87
2018-01-08T07:38:25.112Z,35.27
2018-01-08T07:40:53.776Z,35.03
2018-01-08T07:43:22.239Z,37.63
2018-01-08T07:45:50.609Z,43.30
2018-01-08T07:48:18.990Z,34.40
2018-01-08T07:50:47.507Z,40.20
2018-01-08T07:53:15.873Z,39.03
2018-01-08T07:55:44.259Z,40.60
2018-01-08T07:58:12.905Z,43.35
2018-01-08T08:00:41.521Z,36.27
2018-01-08T08:03:10.073Z,34.40
2018-01-08T08:05:38.725Z,35.67
2018-01-08T08:08:07.229Z,39.97
2018-01-08T08:10:35.633Z,57.17
2018-01-08T08:13:04.035Z,34.33
2018-01-08T08:15:32.700Z,37.63
2018-01-08T08:18:01.385Z,37.10
2018-01-08T08:20:30.134Z,32.40
2018-01-08T08:22:58.724Z,39.00
2018-01-08T08:25:27.224Z,32.83
2018-01-08T08:27:55.900Z,32.13
2018-01-08T08:30:24.566Z,38.00
2018-01-08T08:32:54.032Z,33.72
2018-01-08T08:35:22.696Z,29.40
2018-01-08T08:37:51.440Z,34.55
2018-01-08T08:40:20.862Z,41.60
2018-01-08T08:42:49.262Z,40.47
2018-01-08T08:45:17.698Z,36.95
2018-01-08T08:47:46.164Z,36.43
2018-01-08T08:50:14.815Z,36.75
2018-01-08T08:52:43.294Z,33.67
2018-01-08T08:55:11.683Z,118.50
2018-01-08T08:57:39.789Z,33.03
2018-01-08T09:00:08.335Z,28.57
2018-01-08T09:02:37.739Z,32.53
2018-01-08T09:05:07.211Z,26.00
2018-01-08T09:07:35.917Z,25.90
2018-01-08T09:10:04.846Z,35.70
2018-01-08T09:12:33.489Z,23.50
2018-01-08T09:15:02.165Z,29.17
2018-01-08T09:17:31.045Z,35.00
2018-01-08T09:19:59.421Z,30.50
2018-01-08T09:22:28.069Z,28.23
2018-01-08T09:24:57.488Z,28.20
2018-01-08T09:27:25.951Z,23.30
2018-01-08T09:29:54.332Z,24.33
2018-01-08T09:32:22.737Z,27.00
2018-01-08T09:34:51.109Z,24.23
2018-01-08T09:37:19.452Z,34.17
2018-01-08T09:39:48.152Z,28.60
2018-01-08T09:42:16.530Z,29.07
2018-01-08T09:44:45.952Z,25.62
2018-01-08T09:47:14.631Z,26.45
2018-01-08T09:49:43.280Z,27.87
2018-01-08T09:52:12.410Z,21.70
2018-01-08T09:54:40.821Z,27.70
2018-01-08T09:57:09.194Z,25.70
2018-01-08T09:59:37.582Z,22.40
2018-01-08T10:02:07.226Z,28.17
2018-01-08T10:04:46.775Z,26.93
2018-01-08T10:07:26.605Z,20.97
2018-01-08T10:10:06.518Z,21.58
2018-01-08T10:12:46.225Z,21.50
2018-01-08T10:15:25.756Z,26.20
2018-01-08T10:18:06.079Z,22.27
2018-01-08T10:20:35.225Z,21.70
2018-01-08T10:23:03.598Z,25.87
2018-01-08T10:25:31.999Z,23.10
2018-01-08T10:28:00.313Z,25.52
2018-01-08T10:30:28.269Z,24.63
2018-01-08T10:32:56.276Z,26.77
2018-01-08T10:35:24.384Z,33.53
2018-01-08T10:37:52.564Z,17.20
2018-01-08T10:40:21.921Z,19.70
2018-01-08T10:42:56.885Z,20.83
2018-01-08T10:45:30.756Z,19.97
2018-01-08T10:48:05.664Z,24.05
2018-01-08T10:50:40.462Z,17.50
2018-01-08T10:53:09.261Z,22.00
2018-01-08T10:55:37.582Z,20.83
2018-01-08T10:58:07.085Z,16.00
2018-01-08T11:00:35.493Z,25.47
2018-01-08T11:03:08.913Z,14.63
2018-01-08T11:05:36.723Z,16.90
2018-01-08T11:08:05.639Z,18.70
2018-01-08T11:10:35.807Z,13.40
2018-01-08T11:13:04.314Z,16.57
2018-01-08T11:15:32.023Z,16.43
2018-01-08T11:18:00.221Z,17.07
2018-01-08T11:20:29.081Z,15.77
2018-01-08T11:22:58.616Z,22.13
2018-01-08T11:25:28.085Z,17.13
2018-01-08T11:27:55.848Z,16.53
2018-01-08T11:30:24.509Z,13.10
2018-01-08T11:32:52.873Z,13.32
2018-01-08T11:35:20.638Z,14.27
2018-01-08T11:37:48.546Z,15.20
2018-01-08T11:40:16.876Z,16.77
2018-01-08T11:42:46.679Z,17.58
2018-01-08T11:45:14.402Z,20.17
2018-01-08T11:47:42.126Z,18.40
2018-01-08T11:50:10.046Z,18.03
2018-01-08T11:52:38.387Z,14.85
2018-01-08T11:55:07.362Z,15.10
2018-01-08T11:57:36.766Z,13.32
2018-01-08T12:00:04.883Z,18.27
2018-01-08T12:02:32.909Z,17.90
2018-01-08T12:05:00.759Z,16.98
2018-01-08T12:07:28.509Z,19.00
2018-01-08T12:09:57.172Z,14.00
2018-01-08T12:12:25.033Z,17.43
2018-01-08T12:14:52.838Z,27.50
2018-01-08T12:17:20.580Z,12.10
2018-01-08T12:19:48.974Z,16.03
2018-01-08T12:22:18.383Z,15.23
2018-01-08T12:24:47.345Z,13.18
2018-01-08T12:27:16.174Z,15.15
2018-01-08T12:29:44.206Z,18.53
2018-01-08T12:32:12.627Z,13.27
2018-01-08T12:34:42.215Z,12.20
2018-01-08T12:37:11.632Z,12.23
2018-01-08T12:39:40.020Z,13.10
2018-01-08T12:42:08.069Z,11.53
2018-01-08T12:44:36.539Z,16.23
2018-01-08T12:47:04.923Z,13.87
2018-01-08T12:49:33.033Z,13.77
2018-01-08T12:52:01.009Z,14.10
2018-01-08T12:54:29.409Z,13.10
2018-01-08T12:56:58.060Z,15.43
2018-01-08T12:59:26.091Z,10.40
2018-01-08T13:01:55.289Z,17.27
2018-01-08T13:04:23.022Z,12.23
2018-01-08T13:06:51.798Z,13.10
2018-01-08T13:09:19.790Z,14.30
2018-01-08T13:11:49.226Z,13.40
2018-01-08T13:14:17.894Z,19.75
2018-01-08T13:16:47.320Z,14.30
2018-01-08T13:19:15.790Z,13.07
2018-01-08T13:21:44.478Z,12.73
2018-01-08T13:24:12.551Z,15.30
2018-01-08T13:26:40.257Z,16.70
2018-01-08T13:29:09.251Z,13.83
2018-01-08T13:31:37.951Z,20.30
2018-01-08T13:34:06.737Z,12.80
2018-01-08T13:36:35.219Z,14.37
2018-01-08T13:39:02.941Z,13.77
2018-01-08T13:41:30.659Z,10.50
2018-01-08T13:43:58.734Z,16.17
2018-01-08T13:46:27.500Z,14.60
2018-01-08T13:48:55.484Z,13.05
2018-01-08T13:51:23.186Z,13.00
2018-01-08T13:53:51.924Z,13.60
2018-01-08T13:56:19.876Z,15.93
2018-01-08T13:58:48.340Z,13.27
2018-01-08T14:01:16.342Z,14.18
2018-01-08T14:03:44.046Z,13.80
2018-01-08T14:06:11.773Z,12.13
2018-01-08T14:08:40.545Z,15.57
2018-01-08T14:11:08.601Z,12.20
2018-01-08T14:13:36.857Z,13.13
2018-01-08T14:16:05.293Z,17.67
2018-01-08T14:18:34.695Z,15.03
2018-01-08T14:21:03.621Z,13.50
2018-01-08T14:23:32.058Z,16.87
2018-01-08T14:26:01.465Z,11.98
2018-01-08T14:28:29.940Z,15.60
2018-01-08T14:30:59.365Z,12.73
2018-01-08T14:33:27.748Z,14.50
2018-01-08T14:35:56.130Z,17.77
2018-01-08T14:38:25.025Z,16.92
2018-01-08T14:40:53.069Z,14.23
2018-01-08T14:43:20.782Z,16.10
2018-01-08T14:45:49.566Z,13.53
2018-01-08T14:48:18.086Z,11.73
2018-01-08T14:50:47.402Z,14.30
2018-01-08T14:53:15.864Z,14.67
2018-01-08T14:55:45.078Z,17.23
2018-01-08T14:58:13.330Z,17.62
2018-01-08T15:00:41.135Z,16.50
2018-01-08T15:03:09.821Z,16.63
2018-01-08T15:05:38.365Z,21.27
2018-01-08T15:08:08.262Z,13.85
2018-01-08T15:10:35.979Z,15.07
2018-01-08T15:13:04.005Z,18.30
2018-01-08T15:15:32.675Z,15.20
2018-01-08T15:18:01.505Z,18.10
2018-01-08T15:20:29.765Z,19.00
2018-01-08T15:22:57.813Z,20.00
2018-01-08T15:25:25.566Z,23.73
2018-01-08T15:27:54.216Z,20.40
2018-01-08T15:30:22.599Z,22.40
2018-01-08T15:32:50.973Z,19.13
2018-01-08T15:35:19.642Z,21.83
2018-01-08T15:37:48.838Z,19.73
2018-01-08T15:40:17.233Z,19.43
2018-01-08T15:42:45.978Z,18.57
2018-01-08T15:45:15.414Z,23.67
2018-01-08T15:47:43.842Z,23.33
2018-01-08T15:50:12.286Z,18.27
2018-01-08T15:52:40.744Z,23.97
2018-01-08T15:55:09.346Z,20.10
2018-01-08T15:57:38.034Z,22.47
2018-01-08T16:00:06.729Z,23.20
2018-01-08T16:02:35.529Z,19.80
2018-01-08T16:05:04.688Z,25.90
2018-01-08T16:07:33.439Z,25.87
2018-01-08T16:10:02.857Z,24.65
2018-01-08T16:12:31.137Z,21.50
2018-01-08T16:14:59.521Z,24.70
2018-01-08T16:17:28.194Z,26.20
2018-01-08T16:19:56.843Z,23.55
2018-01-08T16:22:26.065Z,19.53
2018-01-08T16:24:54.750Z,19.00
2018-01-08T16:27:23.130Z,23.20
2018-01-08T16:29:52.555Z,19.30
2018-01-08T16:32:20.941Z,17.70
2018-01-08T16:34:49.598Z,22.02
2018-01-08T16:37:18.161Z,18.63
2018-01-08T16:39:46.878Z,19.67
2018-01-08T16:42:15.529Z,19.05
2018-01-08T16:44:44.156Z,20.70
2018-01-08T16:47:12.582Z,16.17
2018-01-08T16:49:42.082Z,13.93
2018-01-08T16:52:10.730Z,13.57
2018-01-08T16:54:39.158Z,13.40
2018-01-08T16:57:07.536Z,16.97
2018-01-08T16:59:36.158Z,12.77
2018-01-08T17:02:04.638Z,17.13
2018-01-08T17:04:33.038Z,12.17
2018-01-08T17:07:01.694Z,12.77
2018-01-08T17:09:30.361Z,12.20
2018-01-08T17:11:59.802Z,10.73
2018-01-08T17:14:28.526Z,15.87
2018-01-08T17:16:57.413Z,10.00
2018-01-08T17:19:26.708Z,11.70
2018-01-08T17:21:55.102Z,12.53
2018-01-08T17:24:24.530Z,16.17
2018-01-08T17:26:52.994Z,15.03
2018-01-08T17:29:21.439Z,12.67
2018-01-08T17:31:50.239Z,14.47
2018-01-08T17:34:18.625Z,14.00
2018-01-08T17:36:47.281Z,11.77
2018-01-08T17:39:15.661Z,15.43
2018-01-08T17:41:44.331Z,15.65
2018-01-08T17:44:12.768Z,14.20
2018-01-08T17:46:42.094Z,11.67
2018-01-08T17:49:10.741Z,20.62
2018-01-08T17:51:40.193Z,14.40
2018-01-08T17:54:08.562Z,14.60
2018-01-08T17:56:36.959Z,19.87
2018-01-08T17:59:05.368Z,18.30
2018-01-08T18:01:34.582Z,15.60
2018-01-08T18:04:03.486Z,16.60
2018-01-08T18:06:32.917Z,14.57
2018-01-08T18:09:01.560Z,19.30
2018-01-08T18:11:30.142Z,18.40
2018-01-08T18:13:58.586Z,15.97
2018-01-08T18:16:27.250Z,15.10
2018-01-08T18:18:55.886Z,15.30
2018-01-08T18:21:26.097Z,19.33
2018-01-08T18:23:55.422Z,16.87
2018-01-08T18:26:24.834Z,19.20
2018-01-08T18:28:53.323Z,19.73
2018-01-08T18:31:21.986Z,16.70
2018-01-08T18:33:50.359Z,20.17
2018-01-08T18:36:19.798Z,17.10
2018-01-08T18:38:48.245Z,16.03
2018-01-08T18:41:16.745Z,17.23
2018-01-08T18:43:45.479Z,16.40
2018-01-08T18:46:14.654Z,16.20
2018-01-08T18:48:43.298Z,18.00
2018-01-08T18:51:11.967Z,20.52
2018-01-08T18:53:40.341Z,20.15
2018-01-08T18:56:08.779Z,19.47
2018-01-08T18:58:37.260Z,19.47
2018-01-08T19:01:05.909Z,21.48
2018-01-08T19:03:34.280Z,20.70
2018-01-08T19:06:03.052Z,18.33
2018-01-08T19:08:31.716Z,20.35
2018-01-08T19:11:00.237Z,20.93
2018-01-08T19:13:28.918Z,21.67
2018-01-08T19:15:57.359Z,19.10
2018-01-08T19:18:26.011Z,20.03
2018-01-08T19:20:54.396Z,20.43
2018-01-08T19:23:22.773Z,22.73
2018-01-08T19:25:51.146Z,21.63
2018-01-08T19:28:19.542Z,20.53
2018-01-08T19:30:48.189Z,19.73
2018-01-08T19:33:16.566Z,21.63
2018-01-08T19:35:44.941Z,22.27
2018-01-08T19:38:13.593Z,21.25
2018-01-08T19:40:43.016Z,19.52
2018-01-08T19:43:11.673Z,20.55
2018-01-08T19:45:41.086Z,19.30
2018-01-08T19:48:09.457Z,18.90
2018-01-08T19:50:38.915Z,18.80
2018-01-08T19:53:07.581Z,21.40
2018-01-08T19:55:36.125Z,18.30
2018-01-08T19:58:04.641Z,18.97
2018-01-08T20:00:33.129Z,20.63
2018-01-08T20:03:01.503Z,20.83
2018-01-08T20:05:29.885Z,22.67
2018-01-08T20:07:58.451Z,17.53
2018-01-08T20:10:26.817Z,19.10
2018-01-08T20:12:55.324Z,22.43
2018-01-08T20:15:23.925Z,24.30
2018-01-08T20:17:53.174Z,18.20
2018-01-08T20:20:21.554Z,19.17
2018-01-08T20:22:50.074Z,20.00
2018-01-08T20:25:18.458Z,21.90
2018-01-08T20:27:47.938Z,23.30
2018-01-08T20:30:16.332Z,22.33
2018-01-08T20:32:44.798Z,20.50
2018-01-08T20:35:13.475Z,19.97
2018-01-08T20:37:41.850Z,19.08
2018-01-08T20:40:10.219Z,17.17
2018-01-08T20:42:38.837Z,18.43
2018-01-08T20:45:07.210Z,19.80
2018-01-08T20:47:35.865Z,16.13
2018-01-08T20:50:05.343Z,19.98
2018-01-08T20:52:33.865Z,16.63
2018-01-08T20:55:02.239Z,21.60
2018-01-08T20:57:30.901Z,21.58
2018-01-08T20:59:59.321Z,19.50
2018-01-08T21:02:28.180Z,21.93
2018-01-08T21:04:56.747Z,21.53
2018-01-08T21:07:25.976Z,19.27
2018-01-08T21:09:54.626Z,17.85
2018-01-08T21:12:23.145Z,19.50
2018-01-08T21:14:51.532Z,21.10
2018-01-08T21:17:19.896Z,19.83
2018-01-08T21:19:48.296Z,19.70
2018-01-08T21:22:16.492Z,20.47
2018-01-08T21:24:45.143Z,17.33
2018-01-08T21:27:13.804Z,20.60
2018-01-08T21:29:42.698Z,19.98
2018-01-08T21:32:11.067Z,20.93
2018-01-08T21:34:39.453Z,24.63
2018-01-08T21:37:07.834Z,18.87
2018-01-08T21:39:36.212Z,18.40
2018-01-08T21:42:04.873Z,16.40
2018-01-08T21:44:33.251Z,19.10
2018-01-08T21:47:01.653Z,17.60
2018-01-08T21:49:30.347Z,15.50
2018-01-08T21:51:58.713Z,17.53
2018-01-08T21:54:27.209Z,17.10
2018-01-08T21:56:55.609Z,16.83
2018-01-08T21:59:24.256Z,16.58
2018-01-08T22:01:52.852Z,15.07
2018-01-08T22:04:21.860Z,21.67
2018-01-08T22:06:50.271Z,15.83
2018-01-08T22:09:18.648Z,15.73
2018-01-08T22:11:47.302Z,17.77
2018-01-08T22:14:15.682Z,18.93
2018-01-08T22:16:44.356Z,15.23
2018-01-08T22:19:13.622Z,16.43
2018-01-08T22:21:42.274Z,16.30
2018-01-08T22:24:10.662Z,16.60
2018-01-08T22:26:39.046Z,37.20
2018-01-08T22:29:07.676Z,25.37
2018-01-08T22:31:36.322Z,18.27
2018-01-08T22:34:05.758Z,17.10
2018-01-08T22:36:35.037Z,16.58
2018-01-08T22:39:03.287Z,16.70
2018-01-08T22:41:32.574Z,19.92
2018-01-08T22:44:00.942Z,19.37
2018-01-08T22:46:30.081Z,19.67
2018-01-08T22:48:58.509Z,17.37
2018-01-08T22:51:27.661Z,15.20
2018-01-08T22:53:56.069Z,22.80
2018-01-08T22:56:24.469Z,17.80
2018-01-08T22:58:53.610Z,19.47
2018-01-08T23:01:21.980Z,21.93
2018-01-08T23:03:50.372Z,25.97
2018-01-08T23:06:18.741Z,18.83
2018-01-08T23:08:47.901Z,20.93
2018-01-08T23:11:17.048Z,20.60
2018-01-08T23:13:45.415Z,18.77
2018-01-08T23:16:13.792Z,22.43
2018-01-08T23:18:42.181Z,19.33
2018-01-08T23:21:10.562Z,15.27
2018-01-08T23:23:38.938Z,19.80
2018-01-08T23:26:07.322Z,16.10
2018-01-08T23:28:35.690Z,22.50
2018-01-08T23:31:04.062Z,21.93
2018-01-08T23:33:32.466Z,18.00
2018-01-08T23:36:00.837Z,15.67
2018-01-08T23:38:29.213Z,19.10
2018-01-08T23:40:59.101Z,19.90
2018-01-08T23:43:27.469Z,16.50
2018-01-08T23:45:55.987Z,13.23
2018-01-08T23:48:25.161Z,20.77
2018-01-08T23:50:53.536Z,20.27
2018-01-08T23:53:21.919Z,18.53
2018-01-08T23:55:50.307Z,19.90
2018-01-08T23:58:18.687Z,20.40
